createdAt,value
2023-05-20T00:02:01.075Z,75.10
2023-05-20T00:04:36.654Z,75.00
2023-05-20T00:07:08.798Z,75.10
2023-05-20T00:09:42.696Z,75.20
2023-05-20T00:12:16.560Z,75.00
2023-05-20T00:15:04.568Z,75.40
2023-05-20T00:17:38.696Z,73.80
2023-05-20T00:20:19.160Z,74.20
2023-05-20T00:22:48.460Z,73.20
2023-05-20T00:25:16.413Z,73.80
2023-05-20T00:27:50.558Z,74.90
2023-05-20T00:30:21.756Z,73.60
2023-05-20T00:32:52.905Z,74.90
2023-05-20T00:35:30.184Z,74.80
2023-05-20T00:37:59.448Z,73.80
2023-05-20T00:40:27.391Z,74.60
2023-05-20T00:42:58.112Z,75.20
2023-05-20T00:45:29.152Z,74.50
2023-05-20T00:47:59.722Z,72.90
2023-05-20T00:50:31.046Z,72.40
2023-05-20T00:53:00.630Z,72.90
2023-05-20T00:55:28.642Z,73.30
2023-05-20T00:58:08.056Z,73.40
2023-05-20T01:00:36.234Z,75.80
2023-05-20T01:03:10.991Z,75.70
2023-05-20T01:05:41.406Z,75.80
2023-05-20T01:08:35.746Z,73.20
2023-05-20T01:11:10.289Z,75.00
2023-05-20T01:13:55.324Z,76.00
2023-05-20T01:16:25.700Z,73.40
2023-05-20T01:18:57.282Z,75.00
2023-05-20T01:21:25.577Z,72.90
2023-05-20T01:23:57.747Z,74.70
2023-05-20T01:26:31.507Z,75.40
2023-05-20T01:29:08.790Z,75.90
2023-05-20T01:31:39.373Z,77.00
2023-05-20T01:34:16.918Z,76.10
2023-05-20T01:36:47.385Z,76.90
2023-05-20T01:39:22.894Z,75.40
2023-05-20T01:41:51.960Z,76.10
2023-05-20T01:44:20.186Z,75.20
2023-05-20T01:46:52.804Z,75.10
2023-05-20T01:49:26.877Z,76.20
2023-05-20T01:51:54.883Z,75.80
2023-05-20T01:54:32.299Z,75.90
2023-05-20T01:57:00.380Z,76.90
2023-05-20T01:59:31.378Z,76.50
2023-05-20T02:01:59.426Z,77.60
2023-05-20T02:04:27.360Z,76.40
2023-05-20T02:06:58.311Z,77.30
2023-05-20T02:09:27.587Z,77.00
2023-05-20T02:11:55.500Z,77.10
2023-05-20T02:14:29.262Z,77.50
2023-05-20T02:16:57.294Z,76.80
2023-05-20T02:19:25.381Z,77.40
2023-05-20T02:21:53.428Z,75.70
2023-05-20T02:24:21.629Z,75.10
2023-05-20T02:26:55.679Z,76.50
2023-05-20T02:29:23.589Z,74.20
2023-05-20T02:31:58.975Z,76.40
2023-05-20T02:34:27.142Z,75.70
2023-05-20T02:36:58.261Z,73.90
2023-05-20T02:39:28.927Z,75.00
2023-05-20T02:42:07.459Z,73.90
2023-05-20T02:44:41.305Z,74.30
2023-05-20T02:47:19.272Z,75.80
2023-05-20T02:49:56.477Z,75.50
2023-05-20T02:52:24.602Z,74.40
2023-05-20T02:54:56.426Z,75.00
2023-05-20T02:57:28.380Z,74.60
2023-05-20T03:00:01.868Z,77.60
2023-05-20T03:02:29.822Z,77.60
2023-05-20T03:05:00.537Z,77.30
2023-05-20T03:07:28.457Z,73.20
2023-05-20T03:09:56.440Z,75.90
2023-05-20T03:12:27.960Z,77.10
2023-05-20T03:14:59.336Z,75.90
2023-05-20T03:17:27.306Z,75.30
2023-05-20T03:19:57.462Z,74.40
2023-05-20T03:22:31.172Z,74.50
2023-05-20T03:25:00.643Z,74.30
2023-05-20T03:27:29.929Z,76.60
2023-05-20T03:30:11.738Z,77.80
2023-05-20T03:32:42.033Z,77.70
2023-05-20T03:35:12.911Z,78.70
2023-05-20T03:37:44.008Z,75.60
2023-05-20T03:40:14.799Z,76.20
2023-05-20T03:42:44.070Z,78.90
2023-05-20T03:45:12.583Z,77.90
2023-05-20T03:47:43.324Z,78.10
2023-05-20T03:50:14.288Z,76.70
2023-05-20T03:52:45.103Z,77.60
2023-05-20T03:55:16.248Z,77.50
2023-05-20T03:57:45.500Z,78.50
2023-05-20T04:00:17.523Z,77.30
2023-05-20T04:02:45.769Z,78.40
2023-05-20T04:05:14.066Z,78.80
2023-05-20T04:07:42.018Z,78.50
2023-05-20T04:10:13.168Z,78.20
2023-05-20T04:12:57.524Z,79.00
2023-05-20T04:15:35.274Z,80.30
2023-05-20T04:18:06.697Z,79.60
2023-05-20T04:20:41.450Z,80.90
2023-05-20T04:23:09.370Z,80.50
2023-05-20T04:25:37.433Z,78.10
2023-05-20T04:28:06.937Z,80.20
2023-05-20T04:30:52.462Z,77.60
2023-05-20T04:33:20.387Z,78.70
2023-05-20T04:35:48.492Z,81.40
2023-05-20T04:38:19.722Z,80.20
2023-05-20T04:40:58.108Z,78.90
2023-05-20T04:43:30.206Z,78.70
2023-05-20T04:46:06.006Z,80.00
2023-05-20T04:48:34.601Z,81.90
2023-05-20T04:51:02.569Z,80.30
2023-05-20T04:53:36.678Z,79.80
2023-05-20T04:56:08.161Z,80.80
2023-05-20T04:58:37.927Z,82.70
2023-05-20T05:01:06.479Z,82.60
2023-05-20T05:03:36.633Z,84.60
2023-05-20T05:06:09.989Z,84.00
2023-05-20T05:08:40.299Z,81.00
2023-05-20T05:11:08.378Z,84.20
2023-05-20T05:13:40.424Z,81.30
2023-05-20T05:16:08.492Z,81.30
2023-05-20T05:18:36.632Z,83.20
2023-05-20T05:21:05.695Z,80.80
2023-05-20T05:23:39.148Z,80.90
2023-05-20T05:26:13.428Z,81.50
2023-05-20T05:28:44.188Z,82.20
2023-05-20T05:31:12.148Z,83.70
2023-05-20T05:33:40.036Z,84.30
2023-05-20T05:36:14.194Z,86.00
2023-05-20T05:38:45.386Z,86.70
2023-05-20T05:41:13.327Z,89.00
2023-05-20T05:43:41.251Z,87.10
2023-05-20T05:46:10.658Z,87.30
2023-05-20T05:48:42.424Z,87.80
2023-05-20T05:51:12.153Z,87.70
2023-05-20T05:53:40.061Z,87.40
2023-05-20T05:56:13.479Z,86.60
2023-05-20T05:58:41.441Z,87.10
2023-05-20T06:01:10.766Z,87.30
2023-05-20T06:03:38.860Z,87.40
2023-05-20T06:06:12.919Z,85.40
2023-05-20T06:08:43.262Z,85.30
2023-05-20T06:11:17.331Z,84.80
2023-05-20T06:13:48.266Z,85.20
2023-05-20T06:16:17.639Z,85.80
2023-05-20T06:18:46.642Z,85.90
2023-05-20T06:21:14.591Z,86.40
2023-05-20T06:23:45.314Z,86.70
2023-05-20T06:26:19.273Z,86.60
2023-05-20T06:28:50.264Z,85.80
2023-05-20T06:31:19.684Z,86.80
2023-05-20T06:33:53.367Z,86.60
2023-05-20T06:36:21.258Z,87.00
2023-05-20T06:38:55.132Z,86.80
2023-05-20T06:41:23.048Z,87.60
2023-05-20T06:43:53.193Z,88.00
2023-05-20T06:46:25.701Z,87.80
2023-05-20T06:48:55.810Z,88.60
2023-05-20T06:51:23.702Z,88.10
2023-05-20T06:53:54.763Z,88.50
2023-05-20T06:56:28.760Z,88.80
2023-05-20T06:59:13.510Z,89.80
2023-05-20T07:01:45.609Z,89.10
2023-05-20T07:04:13.765Z,89.40
2023-05-20T07:06:41.795Z,89.30
2023-05-20T07:09:09.746Z,90.00
2023-05-20T07:11:37.669Z,90.20
2023-05-20T07:14:09.077Z,90.20
2023-05-20T07:16:37.072Z,90.10
2023-05-20T07:19:06.506Z,89.80
2023-05-20T07:21:34.436Z,90.00
2023-05-20T07:24:02.357Z,90.10
2023-05-20T07:26:36.634Z,90.30
2023-05-20T07:29:04.963Z,90.60
2023-05-20T07:31:32.966Z,91.00
2023-05-20T07:34:03.780Z,90.70
2023-05-20T07:36:33.056Z,90.60
2023-05-20T07:39:04.380Z,90.60
2023-05-20T07:41:41.811Z,91.00
2023-05-20T07:44:13.195Z,91.10
2023-05-20T07:46:41.856Z,91.30
2023-05-20T07:49:18.880Z,91.20
2023-05-20T07:51:50.955Z,91.20
2023-05-20T07:54:18.911Z,91.10
2023-05-20T07:56:49.727Z,91.00
2023-05-20T07:59:20.304Z,91.40
2023-05-20T08:01:48.253Z,91.30
2023-05-20T08:04:19.302Z,91.50
2023-05-20T08:06:47.444Z,91.90
2023-05-20T08:09:19.884Z,91.30
2023-05-20T08:11:50.773Z,91.50
2023-05-20T08:14:18.777Z,91.80
2023-05-20T08:16:49.196Z,92.00
2023-05-20T08:19:20.629Z,92.50
2023-05-20T08:21:51.774Z,92.20
2023-05-20T08:24:21.177Z,92.00
2023-05-20T08:26:49.104Z,92.40
2023-05-20T08:29:19.896Z,92.60
2023-05-20T08:31:47.830Z,92.70
2023-05-20T08:34:23.218Z,93.20
2023-05-20T08:36:51.118Z,92.40
2023-05-20T08:39:20.437Z,92.20
2023-05-20T08:41:48.866Z,92.60
2023-05-20T08:44:20.453Z,92.20
2023-05-20T08:46:52.163Z,92.70
2023-05-20T08:49:21.208Z,92.60
2023-05-20T08:51:49.218Z,92.60
2023-05-20T08:54:18.025Z,92.80
2023-05-20T08:56:49.592Z,93.10
2023-05-20T08:59:19.394Z,93.40
2023-05-20T09:01:49.914Z,93.00
2023-05-20T09:04:18.437Z,92.60
2023-05-20T09:06:47.152Z,93.00
2023-05-20T09:09:17.912Z,93.00
2023-05-20T09:11:47.150Z,93.00
2023-05-20T09:14:15.032Z,93.20
2023-05-20T09:16:43.525Z,93.10
2023-05-20T09:19:12.097Z,92.80
2023-05-20T09:21:43.020Z,92.80
2023-05-20T09:24:10.935Z,93.20
2023-05-20T09:26:38.913Z,93.10
2023-05-20T09:29:08.743Z,93.00
2023-05-20T09:31:39.677Z,93.40
2023-05-20T09:34:10.867Z,93.70
2023-05-20T09:36:43.581Z,93.90
2023-05-20T09:39:15.776Z,93.80
2023-05-20T09:41:50.675Z,93.60
2023-05-20T09:44:21.630Z,94.00
2023-05-20T09:46:52.494Z,94.00
2023-05-20T09:49:27.863Z,94.00
2023-05-20T09:51:57.128Z,94.10
2023-05-20T09:54:27.000Z,93.80
2023-05-20T09:56:55.737Z,94.20
2023-05-20T09:59:25.941Z,94.50
2023-05-20T10:01:54.227Z,94.30
2023-05-20T10:04:24.382Z,94.10
2023-05-20T10:07:11.777Z,94.20
2023-05-20T10:09:57.443Z,94.50
2023-05-20T10:12:35.241Z,94.10
2023-05-20T10:15:17.500Z,94.60
2023-05-20T10:17:53.083Z,94.40
2023-05-20T10:20:21.440Z,94.40
2023-05-20T10:22:57.947Z,94.60
2023-05-20T10:25:32.131Z,95.10
2023-05-20T10:28:09.440Z,94.70
2023-05-20T10:30:39.836Z,94.80
2023-05-20T10:33:14.366Z,94.70
2023-05-20T10:35:49.117Z,94.80
2023-05-20T10:38:17.013Z,95.00
2023-05-20T10:40:44.935Z,94.80
2023-05-20T10:43:16.003Z,94.70
2023-05-20T10:45:55.531Z,94.80
2023-05-20T10:48:27.215Z,95.10
2023-05-20T10:51:04.203Z,94.30
2023-05-20T10:53:40.367Z,94.50
2023-05-20T10:56:18.350Z,94.90
2023-05-20T10:58:46.706Z,95.00
2023-05-20T11:01:19.984Z,94.10
2023-05-20T11:03:48.677Z,94.60
2023-05-20T11:06:18.459Z,94.30
2023-05-20T11:08:47.632Z,94.50
2023-05-20T11:11:16.590Z,94.50
2023-05-20T11:13:44.644Z,94.00
2023-05-20T11:16:21.403Z,93.20
2023-05-20T11:18:55.863Z,93.60
2023-05-20T11:21:26.942Z,94.00
2023-05-20T11:23:57.248Z,93.30
2023-05-20T11:26:25.868Z,93.80
2023-05-20T11:28:54.108Z,93.90
2023-05-20T11:31:39.023Z,92.90
2023-05-20T11:34:06.976Z,93.00
2023-05-20T11:36:50.870Z,93.30
2023-05-20T11:39:19.568Z,93.10
2023-05-20T11:41:48.141Z,92.90
2023-05-20T11:44:18.582Z,92.70
2023-05-20T11:46:48.845Z,93.40
2023-05-20T11:49:19.621Z,92.30
2023-05-20T11:51:47.516Z,93.10
2023-05-20T11:54:15.445Z,92.40
2023-05-20T11:56:45.594Z,92.90
2023-05-20T11:59:16.367Z,92.40
2023-05-20T12:01:44.614Z,92.50
2023-05-20T12:04:17.926Z,92.70
2023-05-20T12:06:46.769Z,92.20
2023-05-20T12:09:15.241Z,92.50
2023-05-20T12:11:46.324Z,91.70
2023-05-20T12:14:14.426Z,92.20
2023-05-20T12:16:42.332Z,92.00
2023-05-20T12:19:10.314Z,92.10
2023-05-20T12:21:39.604Z,91.30
2023-05-20T12:24:08.612Z,91.70
2023-05-20T12:26:40.338Z,91.50
2023-05-20T12:29:08.384Z,91.50
2023-05-20T12:31:39.299Z,91.00
2023-05-20T12:34:12.542Z,91.70
2023-05-20T12:36:42.378Z,91.10
2023-05-20T12:39:11.043Z,91.30
2023-05-20T12:41:44.909Z,91.20
2023-05-20T12:44:12.827Z,91.30
2023-05-20T12:46:43.815Z,91.50
2023-05-20T12:49:14.630Z,91.50
2023-05-20T12:51:43.869Z,91.30
2023-05-20T12:54:14.810Z,91.20
2023-05-20T12:56:48.853Z,91.30
2023-05-20T12:59:16.752Z,91.10
2023-05-20T13:01:47.716Z,91.00
2023-05-20T13:04:15.639Z,91.30
2023-05-20T13:06:44.950Z,91.50
2023-05-20T13:09:12.862Z,90.90
2023-05-20T13:11:40.904Z,91.40
2023-05-20T13:14:08.867Z,90.40
2023-05-20T13:16:36.877Z,91.30
2023-05-20T13:19:04.870Z,90.90
2023-05-20T13:21:32.859Z,91.40
2023-05-20T13:24:02.524Z,91.20
2023-05-20T13:26:31.679Z,91.30
2023-05-20T13:29:02.509Z,91.50
2023-05-20T13:31:30.498Z,90.90
2023-05-20T13:34:00.482Z,90.40
2023-05-20T13:36:28.608Z,90.60
2023-05-20T13:38:56.631Z,90.90
2023-05-20T13:41:26.698Z,90.10
2023-05-20T13:43:54.628Z,90.80
2023-05-20T13:46:22.950Z,90.00
2023-05-20T13:48:51.094Z,90.20
2023-05-20T13:51:24.946Z,90.40
2023-05-20T13:53:55.872Z,90.10
2023-05-20T13:56:23.859Z,90.00
2023-05-20T13:58:59.344Z,90.40
2023-05-20T14:01:32.964Z,90.80
2023-05-20T14:04:01.087Z,90.30
2023-05-20T14:06:36.850Z,90.80
2023-05-20T14:09:08.037Z,90.30
2023-05-20T14:11:41.705Z,90.40
2023-05-20T14:14:11.081Z,90.40
2023-05-20T14:16:44.912Z,91.10
2023-05-20T14:19:15.182Z,90.70
2023-05-20T14:21:49.013Z,90.90
2023-05-20T14:24:17.012Z,91.00
2023-05-20T14:26:44.939Z,90.40
2023-05-20T14:29:15.216Z,90.30
2023-05-20T14:31:43.499Z,90.50
2023-05-20T14:34:11.791Z,90.50
2023-05-20T14:36:39.781Z,90.70
2023-05-20T14:39:13.804Z,91.20
2023-05-20T14:41:43.901Z,91.10
2023-05-20T14:44:14.184Z,91.30
2023-05-20T14:46:45.969Z,90.80
2023-05-20T14:49:14.079Z,90.60
2023-05-20T14:51:44.736Z,90.50
2023-05-20T14:54:16.219Z,90.70
2023-05-20T14:56:49.785Z,90.50
2023-05-20T14:59:23.228Z,91.10
2023-05-20T15:01:58.575Z,90.50
2023-05-20T15:04:29.574Z,90.70
2023-05-20T15:06:57.546Z,91.30
2023-05-20T15:09:25.521Z,91.30
2023-05-20T15:11:58.445Z,91.30
2023-05-20T15:14:26.321Z,91.10
2023-05-20T15:16:58.785Z,91.00
2023-05-20T15:19:29.942Z,91.00
2023-05-20T15:22:04.141Z,90.40
2023-05-20T15:24:37.709Z,90.90
2023-05-20T15:27:14.920Z,90.80
2023-05-20T15:29:42.839Z,91.00
2023-05-20T15:32:14.553Z,91.10
2023-05-20T15:34:42.452Z,91.10
2023-05-20T15:37:10.360Z,91.30
2023-05-20T15:39:39.290Z,91.10
2023-05-20T15:42:07.329Z,90.80
2023-05-20T15:44:36.049Z,91.40
2023-05-20T15:47:06.575Z,91.10
2023-05-20T15:49:35.850Z,91.30
2023-05-20T15:52:04.588Z,91.30
2023-05-20T15:54:35.795Z,91.10
2023-05-20T15:57:07.015Z,90.90
2023-05-20T15:59:34.959Z,90.80
2023-05-20T16:02:02.962Z,90.80
2023-05-20T16:04:33.139Z,90.90
2023-05-20T16:07:02.486Z,90.90
2023-05-20T16:09:30.416Z,91.10
2023-05-20T16:11:58.450Z,90.90
2023-05-20T16:14:26.355Z,91.20
2023-05-20T16:16:54.275Z,91.00
2023-05-20T16:19:22.290Z,91.20
2023-05-20T16:21:56.689Z,91.30
2023-05-20T16:24:25.991Z,91.30
2023-05-20T16:26:55.051Z,91.40
2023-05-20T16:29:22.956Z,91.30
2023-05-20T16:31:50.968Z,91.20
2023-05-20T16:34:21.731Z,91.50
2023-05-20T16:36:50.025Z,92.10
2023-05-20T16:39:18.072Z,91.30
2023-05-20T16:41:49.566Z,91.10
2023-05-20T16:44:17.546Z,91.40
2023-05-20T16:46:45.530Z,91.10
2023-05-20T16:49:13.416Z,91.40
2023-05-20T16:51:44.390Z,91.00
2023-05-20T16:54:14.504Z,91.30
2023-05-20T16:56:42.425Z,91.30
2023-05-20T16:59:19.191Z,91.60
2023-05-20T17:01:49.521Z,91.20
2023-05-20T17:04:17.479Z,91.30
2023-05-20T17:06:52.526Z,91.10
2023-05-20T17:09:20.461Z,91.30
2023-05-20T17:12:05.298Z,91.50
2023-05-20T17:14:34.551Z,91.30
2023-05-20T17:17:02.498Z,91.50
2023-05-20T17:19:33.326Z,91.70
2023-05-20T17:22:10.172Z,91.60
2023-05-20T17:24:38.131Z,91.50
2023-05-20T17:27:09.261Z,91.50
2023-05-20T17:29:38.520Z,91.80
2023-05-20T17:32:12.490Z,91.50
2023-05-20T17:34:43.227Z,91.80
2023-05-20T17:37:11.134Z,91.90
2023-05-20T17:39:39.014Z,91.90
2023-05-20T17:42:10.099Z,92.10
2023-05-20T17:44:39.362Z,92.10
2023-05-20T17:47:07.448Z,92.00
2023-05-20T17:49:35.390Z,92.20
2023-05-20T17:52:03.333Z,92.10
2023-05-20T17:54:31.238Z,92.00
2023-05-20T17:57:01.266Z,92.00
2023-05-20T17:59:29.240Z,92.30
2023-05-20T18:01:58.802Z,92.50
2023-05-20T18:04:29.920Z,92.50
2023-05-20T18:07:06.808Z,92.50
2023-05-20T18:09:34.876Z,92.50
2023-05-20T18:12:06.588Z,92.80
2023-05-20T18:14:40.609Z,92.80
2023-05-20T18:17:27.164Z,92.60
2023-05-20T18:19:57.281Z,92.60
2023-05-20T18:22:25.999Z,92.80
2023-05-20T18:24:53.926Z,92.90
2023-05-20T18:27:24.756Z,93.00
2023-05-20T18:29:52.674Z,93.40
2023-05-20T18:32:22.183Z,93.10
2023-05-20T18:34:57.794Z,93.20
2023-05-20T18:37:27.356Z,93.00
2023-05-20T18:39:57.031Z,93.00
2023-05-20T18:42:25.037Z,93.00
2023-05-20T18:44:59.168Z,93.20
2023-05-20T18:47:33.454Z,93.10
2023-05-20T18:50:06.251Z,93.10
2023-05-20T18:52:34.219Z,93.30
2023-05-20T18:55:02.148Z,93.20
2023-05-20T18:57:30.040Z,93.40
2023-05-20T18:59:58.000Z,93.60
2023-05-20T19:02:25.964Z,93.80
2023-05-20T19:04:57.126Z,93.60
2023-05-20T19:07:26.416Z,93.80
2023-05-20T19:09:54.640Z,93.70
2023-05-20T19:12:22.584Z,93.60
2023-05-20T19:14:50.518Z,93.70
2023-05-20T19:17:21.407Z,93.40
2023-05-20T19:19:49.544Z,93.50
2023-05-20T19:22:28.104Z,93.70
2023-05-20T19:24:55.992Z,93.80
2023-05-20T19:27:23.968Z,94.00
2023-05-20T19:30:00.895Z,94.20
2023-05-20T19:32:28.833Z,94.20
2023-05-20T19:34:56.777Z,94.40
2023-05-20T19:37:27.723Z,94.40
2023-05-20T19:40:02.863Z,94.10
2023-05-20T19:42:30.817Z,94.10
2023-05-20T19:44:58.740Z,94.20
2023-05-20T19:47:29.063Z,94.10
2023-05-20T19:50:00.161Z,94.20
2023-05-20T19:52:29.483Z,94.10
2023-05-20T19:54:57.476Z,94.10
2023-05-20T19:57:34.350Z,94.10
2023-05-20T20:00:02.232Z,94.10
2023-05-20T20:02:33.035Z,94.50
2023-05-20T20:05:01.164Z,94.00
2023-05-20T20:07:36.619Z,94.20
2023-05-20T20:10:04.690Z,94.20
2023-05-20T20:12:39.829Z,94.50
2023-05-20T20:15:14.117Z,94.40
2023-05-20T20:17:45.546Z,94.50
2023-05-20T20:20:17.256Z,94.50
2023-05-20T20:22:47.059Z,94.70
2023-05-20T20:25:16.895Z,94.80
2023-05-20T20:27:45.083Z,94.60
2023-05-20T20:30:26.773Z,94.70
2023-05-20T20:32:54.674Z,94.40
2023-05-20T20:35:23.323Z,94.50
2023-05-20T20:37:54.289Z,94.70
2023-05-20T20:40:22.433Z,94.90
2023-05-20T20:42:50.361Z,94.50
2023-05-20T20:45:18.431Z,94.60
2023-05-20T20:47:46.429Z,94.50
2023-05-20T20:50:23.458Z,94.70
2023-05-20T20:52:55.235Z,95.20
2023-05-20T20:55:31.298Z,95.00
2023-05-20T20:58:06.592Z,95.20
2023-05-20T21:00:40.028Z,95.10
2023-05-20T21:03:08.484Z,95.10
2023-05-20T21:05:37.479Z,94.90
2023-05-20T21:08:08.206Z,95.00
2023-05-20T21:10:45.171Z,95.00
2023-05-20T21:13:18.707Z,95.10
2023-05-20T21:15:47.250Z,95.10
2023-05-20T21:18:22.017Z,95.30
2023-05-20T21:20:50.985Z,95.40
2023-05-20T21:23:20.444Z,95.40
2023-05-20T21:25:48.791Z,95.50
2023-05-20T21:28:16.980Z,95.50
2023-05-20T21:30:51.074Z,95.50
2023-05-20T21:33:18.994Z,95.30
2023-05-20T21:35:54.388Z,95.30
2023-05-20T21:38:23.647Z,95.30
2023-05-20T21:40:51.640Z,95.40
2023-05-20T21:43:22.360Z,95.20
2023-05-20T21:45:52.785Z,95.20
2023-05-20T21:48:26.753Z,95.10
2023-05-20T21:50:57.427Z,95.10
2023-05-20T21:53:32.283Z,95.20
2023-05-20T21:56:00.211Z,95.40
2023-05-20T21:58:36.586Z,95.50
2023-05-20T22:01:04.540Z,95.40
2023-05-20T22:03:35.784Z,95.50
2023-05-20T22:06:05.033Z,95.20
2023-05-20T22:08:34.719Z,95.00
2023-05-20T22:11:07.083Z,95.10
2023-05-20T22:13:35.604Z,95.10
2023-05-20T22:16:07.338Z,94.80
2023-05-20T22:18:38.490Z,94.70
2023-05-20T22:21:16.516Z,94.50
2023-05-20T22:23:45.795Z,94.40
2023-05-20T22:26:13.705Z,94.30
2023-05-20T22:28:44.381Z,94.40
2023-05-20T22:31:12.508Z,94.40
2023-05-20T22:33:43.388Z,94.50
2023-05-20T22:36:14.417Z,94.60
2023-05-20T22:38:49.853Z,94.80
2023-05-20T22:41:17.771Z,94.90
2023-05-20T22:43:47.788Z,94.90
2023-05-20T22:46:18.624Z,95.10
2023-05-20T22:48:54.453Z,95.10
2023-05-20T22:51:24.522Z,95.10
2023-05-20T22:53:57.185Z,95.10
2023-05-20T22:56:25.755Z,95.20
2023-05-20T22:58:56.744Z,95.20
2023-05-20T23:01:24.885Z,95.40
2023-05-20T23:03:55.968Z,95.40
2023-05-20T23:06:26.843Z,95.60
2023-05-20T23:08:56.122Z,95.60
2023-05-20T23:11:29.915Z,95.70
2023-05-20T23:14:03.019Z,95.80
2023-05-20T23:16:34.203Z,95.90
2023-05-20T23:19:02.186Z,95.80
2023-05-20T23:21:32.677Z,95.40
2023-05-20T23:24:04.948Z,95.30
2023-05-20T23:26:43.154Z,95.10
2023-05-20T23:29:17.121Z,95.00
2023-05-20T23:31:45.022Z,95.00
2023-05-20T23:34:13.000Z,95.10
2023-05-20T23:36:42.033Z,95.00
2023-05-20T23:39:18.352Z,95.10
2023-05-20T23:44:30.928Z,95.40
2023-05-20T23:46:58.822Z,95.50
2023-05-20T23:49:27.185Z,95.40
2023-05-20T23:51:55.218Z,95.60
2023-05-20T23:54:27.732Z,95.70
2023-05-20T23:56:58.494Z,95.70
2023-05-20T23:59:27.303Z,95.90
